Svyataya Anna — UUCV — position and weather

sailwx.info

Track history (hours):
 
Tides and Currents Weather Stations Pressure Air Temp Water Temp Dewpoint Dewpoint Depression Visibility Wind Speed Wind Dir Waves Ship Positions

Svyataya Anna

Last reported at 2016-Jun-28 18:12 UTC. Time now 2016-Jun-30 10:31 UTC.
Position N 47°06' E 037°34'.

Length 93 m; draft 3.2 m.

Type: Cargo ship. MMSI: 272068800.

Date/timePositionNaut miles runAvg speedWind from/ knotsBaromVisibWave heightAir tempDewpointWater temp
2016-Jun-28 18:12N 47°06' E 037°34'  
2016-Jun-22 04:22N 47°05' E 037°34'3 3.7
2016-Jun-22 03:33N 47°02' E 037°31'4 3.9
2016-Jun-22 02:32N 46°58' E 037°30'4 3.7
2016-Jun-22 01:30N 46°55' E 037°28'9 3.7
2016-Jun-21 23:08N 46°49' E 037°19'7 4.2
2016-Jun-21 21:30N 46°44' E 037°11'4 0.1
2016-Jun-20 08:17N 46°46' E 037°15'4 4.9
2016-Jun-20 07:33N 46°49' E 037°19'7 5.0
2016-Jun-20 06:10N 46°53' E 037°27'4 5.2
2016-Jun-20 05:28N 46°57' E 037°29'5 5.2
2016-Jun-20 04:33N 47°01' E 037°31'5 4.1
2016-Jun-20 03:15N 47°06' E 037°35'0 0.0
2016-Jun-19 05:26N 47°06' E 037°34'2 2.7
2016-Jun-19 04:33N 47°04' E 037°33'4 3.9
2016-Jun-19 03:33N 47°00' E 037°31'5 4.5
2016-Jun-19 02:33N 46°56' E 037°29'5 4.6
2016-Jun-19 01:34N 46°52' E 037°25'5 4.9
2016-Jun-19 00:33N 46°49' E 037°19'5 4.8
2016-Jun-18 23:32N 46°46' E 037°14'5 4.7
2016-Jun-18 22:33N 46°43' E 037°08'5 4.9
2016-Jun-18 21:26N 46°40' E 037°02'  
Track history (hours):
 
Tides and Currents Weather Stations Pressure Air Temp Water Temp Dewpoint Dewpoint Depression Visibility Wind Speed Wind Dir Waves Ship Positions

Svyataya Anna

Last reported at 2016-Jun-28 18:12 UTC. Time now 2016-Jun-30 10:31 UTC.
Position N 47°06' E 037°34'.

Length 93 m; draft 3.2 m.

Type: Cargo ship. MMSI: 272068800.

Date/timePositionNaut miles runAvg speedWind from/ knotsBaromVisibWave heightAir tempDewpointWater temp
2016-Jun-28 18:12N 47°06' E 037°34'  
2016-Jun-22 04:22N 47°05' E 037°34'3 3.7
2016-Jun-22 03:33N 47°02' E 037°31'4 3.9
2016-Jun-22 02:32N 46°58' E 037°30'4 3.7
2016-Jun-22 01:30N 46°55' E 037°28'9 3.7
2016-Jun-21 23:08N 46°49' E 037°19'7 4.2
2016-Jun-21 21:30N 46°44' E 037°11'4 0.1
2016-Jun-20 08:17N 46°46' E 037°15'4 4.9
2016-Jun-20 07:33N 46°49' E 037°19'7 5.0
2016-Jun-20 06:10N 46°53' E 037°27'4 5.2
2016-Jun-20 05:28N 46°57' E 037°29'5 5.2
2016-Jun-20 04:33N 47°01' E 037°31'5 4.1
2016-Jun-20 03:15N 47°06' E 037°35'0 0.0
2016-Jun-19 05:26N 47°06' E 037°34'2 2.7
2016-Jun-19 04:33N 47°04' E 037°33'4 3.9
2016-Jun-19 03:33N 47°00' E 037°31'5 4.5
2016-Jun-19 02:33N 46°56' E 037°29'5 4.6
2016-Jun-19 01:34N 46°52' E 037°25'5 4.9
2016-Jun-19 00:33N 46°49' E 037°19'5 4.8
2016-Jun-18 23:32N 46°46' E 037°14'5 4.7
2016-Jun-18 22:33N 46°43' E 037°08'5 4.9
2016-Jun-18 21:26N 46°40' E 037°02'  

Dump ship's entire track history